EICK - Cork Airport
Distance from station: E 5mi, 14km
Updated: 10/17/2017 1:00pm
Few Clouds
Few Clouds
 Wind from SE
Wind: SE 3 mph , 6 km/h
Temperature: 46°F , 8°C
Dew Point: 46°F , 8°C
Humidity: 100%
Barometer: 29.97 inHg , 1015 hPa
Clouds: Few Clouds
Visibility: 6 miles , 10 km
Cloud details: Few Clouds 3800 ft
2017/10/17 20:00 EICK 172000Z 13003KT 9999 FEW038 08/08 Q1015 NOSIG